UUDD/DME METAR and TAF weather

Enter ICAO airport designator
Station Type Date Time Source
UUDD METAR 2022/06/30 00:00 UTC NOAA

UUDD 300000Z VRB01MPS CAVOK 10/08 Q1020 R14R/CLRD60 NOSIG


Station Type Date Time Source
UUDD Decoded METAR 2022/06/30 00:00 UTC NOAA

Moscow / Domodedovo, Russia (UUDD) 55-24N 037-54E
Jun 29, 2022 - 08:00 PM EDT / 2022.06.30 0000 UTC
Wind: Variable at 2 MPH (2 KT):0
Visibility: greater than 7 mile(s):0
Temperature: 50 F (10 C)
Dew Point: 46 F (8 C)
Relative Humidity: 87%
Pressure (altimeter): 30.12 in. Hg (1020 hPa)
ob: UUDD 300000Z VRB01MPS CAVOK 10/08 Q1020 R14R/CLRD60 NOSIG
cycle: 0

Station Type Date Time Source
UUDD TAF 2022/06/29 21:22 UTC NOAA

TAF UUDD 291952Z 2921/0103 06003MPS 9999 SCT040 TX25/3012Z TN11/3001Z
BECMG 3009/3011 36007G13MPS

Example: see airport list